createdAt,value
2018-08-16T00:00:32.931Z,26.33
2018-08-16T00:03:00.689Z,26.34
2018-08-16T00:05:28.458Z,26.33
2018-08-16T00:07:56.161Z,26.34
2018-08-16T00:10:30.253Z,26.33
2018-08-16T00:12:57.986Z,26.32
2018-08-16T00:15:25.657Z,26.31
2018-08-16T00:17:53.317Z,26.30
2018-08-16T00:20:20.976Z,26.31
2018-08-16T00:22:48.724Z,26.30
2018-08-16T00:25:16.913Z,26.30
2018-08-16T00:27:44.656Z,26.31
2018-08-16T00:30:13.170Z,26.29
2018-08-16T00:32:41.157Z,26.28
2018-08-16T00:35:08.814Z,26.28
2018-08-16T00:37:36.515Z,26.28
2018-08-16T00:40:05.330Z,26.27
2018-08-16T00:42:34.745Z,26.26
2018-08-16T00:45:02.759Z,26.27
2018-08-16T00:47:30.833Z,26.26
2018-08-16T00:49:58.515Z,26.25
2018-08-16T00:52:26.176Z,26.25
2018-08-16T00:54:53.849Z,26.25
2018-08-16T00:57:21.548Z,26.25
2018-08-16T00:59:49.281Z,26.24
2018-08-16T01:02:17.037Z,26.25
2018-08-16T01:04:44.766Z,26.24
2018-08-16T01:07:12.493Z,26.23
2018-08-16T01:09:40.241Z,26.24
2018-08-16T01:12:07.925Z,26.23
2018-08-16T01:14:35.621Z,26.23
2018-08-16T01:17:03.295Z,26.23
2018-08-16T01:19:30.965Z,26.23
2018-08-16T01:21:58.672Z,26.20
2018-08-16T01:24:26.340Z,26.22
2018-08-16T01:26:54.076Z,26.21
2018-08-16T01:29:21.793Z,26.20
2018-08-16T01:31:49.684Z,26.20
2018-08-16T01:34:17.462Z,26.19
2018-08-16T01:36:45.252Z,26.18
2018-08-16T01:39:13.046Z,26.19
2018-08-16T01:41:40.840Z,26.18
2018-08-16T01:44:08.724Z,26.18
2018-08-16T01:46:36.680Z,26.18
2018-08-16T01:49:05.698Z,26.17
2018-08-16T01:51:33.387Z,26.17
2018-08-16T01:54:01.106Z,26.16
2018-08-16T01:56:28.917Z,26.16
2018-08-16T01:58:56.582Z,26.15
2018-08-16T02:01:24.323Z,26.16
2018-08-16T02:03:52.063Z,26.16
2018-08-16T02:06:19.895Z,26.15
2018-08-16T02:08:47.657Z,26.14
2018-08-16T02:11:15.346Z,26.14
2018-08-16T02:13:43.016Z,25.35
2018-08-16T02:16:10.842Z,26.14
2018-08-16T02:18:38.550Z,26.13
2018-08-16T02:21:06.373Z,26.13
2018-08-16T02:23:34.069Z,26.13
2018-08-16T02:26:01.817Z,26.13
2018-08-16T02:28:29.694Z,26.11
2018-08-16T02:30:57.529Z,26.11
2018-08-16T02:33:25.301Z,26.12
2018-08-16T02:35:53.205Z,26.10
2018-08-16T02:38:20.880Z,26.11
2018-08-16T02:40:48.541Z,26.10
2018-08-16T02:43:16.224Z,26.10
2018-08-16T02:45:43.863Z,26.09
2018-08-16T02:48:11.525Z,26.07
2018-08-16T02:50:39.253Z,26.09
2018-08-16T02:53:06.944Z,26.08
2018-08-16T02:55:34.649Z,26.09
2018-08-16T02:58:02.377Z,26.06
2018-08-16T03:00:30.046Z,26.06
2018-08-16T03:02:57.762Z,26.07
2018-08-16T03:05:25.447Z,26.07
2018-08-16T03:07:53.186Z,26.06
2018-08-16T03:10:20.856Z,26.07
2018-08-16T03:12:48.610Z,26.05
2018-08-16T03:15:16.308Z,26.05
2018-08-16T03:17:44.018Z,26.06
2018-08-16T03:20:11.676Z,26.05
2018-08-16T03:22:39.386Z,26.04
2018-08-16T03:25:07.075Z,26.04
2018-08-16T03:27:34.790Z,26.04
2018-08-16T03:30:02.581Z,26.04
2018-08-16T03:32:30.301Z,26.03
2018-08-16T03:35:04.031Z,26.02
2018-08-16T03:37:31.783Z,26.02
2018-08-16T03:39:59.449Z,26.01
2018-08-16T03:42:27.129Z,26.02
2018-08-16T03:44:54.823Z,26.02
2018-08-16T03:47:22.496Z,26.01
2018-08-16T03:49:50.153Z,26.00
2018-08-16T03:52:17.875Z,26.00
2018-08-16T03:54:45.560Z,26.00
2018-08-16T03:57:13.327Z,25.99
2018-08-16T03:59:41.086Z,25.98
2018-08-16T04:02:08.889Z,25.99
2018-08-16T04:04:36.889Z,25.99
2018-08-16T04:07:04.585Z,25.98
2018-08-16T04:09:32.301Z,25.98
2018-08-16T04:12:00.008Z,25.98
2018-08-16T04:14:27.680Z,25.97
2018-08-16T04:16:55.396Z,25.97
2018-08-16T04:19:23.129Z,25.96
2018-08-16T04:21:50.852Z,25.95
2018-08-16T04:24:18.562Z,25.95
2018-08-16T04:26:46.296Z,25.96
2018-08-16T04:29:14.134Z,25.96
2018-08-16T04:31:41.909Z,25.96
2018-08-16T04:34:09.594Z,25.96
2018-08-16T04:36:37.314Z,25.94
2018-08-16T04:39:06.330Z,25.95
2018-08-16T04:41:34.146Z,25.94
2018-08-16T04:44:01.911Z,25.93
2018-08-16T04:46:29.605Z,25.94
2018-08-16T04:48:57.340Z,25.93
2018-08-16T04:51:25.025Z,25.94
2018-08-16T04:53:52.718Z,25.94
2018-08-16T04:56:20.408Z,25.93
2018-08-16T04:58:48.085Z,25.95
2018-08-16T05:01:15.778Z,25.94
2018-08-16T05:03:43.450Z,25.93
2018-08-16T05:06:11.393Z,25.93
2018-08-16T05:08:39.118Z,25.93
2018-08-16T05:11:06.863Z,25.92
2018-08-16T05:13:34.616Z,25.93
2018-08-16T05:16:02.409Z,25.93
2018-08-16T05:18:30.216Z,25.93
2018-08-16T05:20:57.936Z,25.93
2018-08-16T05:23:25.693Z,25.93
2018-08-16T05:25:53.348Z,25.92
2018-08-16T05:28:21.042Z,25.93
2018-08-16T05:30:48.760Z,25.93
2018-08-16T05:33:16.465Z,25.92
2018-08-16T05:35:44.161Z,25.93
2018-08-16T05:38:11.891Z,25.92
2018-08-16T05:40:39.554Z,25.93
2018-08-16T05:43:07.273Z,25.92
2018-08-16T05:45:34.950Z,25.92
2018-08-16T05:48:02.879Z,25.92
2018-08-16T05:50:30.551Z,25.91
2018-08-16T05:52:58.250Z,25.91
2018-08-16T05:55:25.925Z,25.91
2018-08-16T05:57:53.694Z,25.92
2018-08-16T06:00:21.361Z,25.95
2018-08-16T06:02:49.221Z,25.99
2018-08-16T06:05:16.965Z,26.01
2018-08-16T06:07:44.896Z,25.99
2018-08-16T06:10:12.717Z,25.34
2018-08-16T06:12:40.482Z,25.12
2018-08-16T06:15:08.997Z,25.00
2018-08-16T06:17:36.844Z,24.95
2018-08-16T06:20:05.732Z,24.99
2018-08-16T06:22:33.563Z,25.01
2018-08-16T06:25:01.399Z,24.91
2018-08-16T06:27:29.350Z,25.06
2018-08-16T06:29:57.320Z,25.10
2018-08-16T06:32:25.182Z,25.18
2018-08-16T06:34:52.967Z,25.12
2018-08-16T06:37:20.757Z,25.07
2018-08-16T06:39:48.622Z,25.16
2018-08-16T06:42:16.350Z,25.09
2018-08-16T06:44:44.249Z,25.17
2018-08-16T06:47:15.494Z,25.24
2018-08-16T06:49:43.593Z,25.18
2018-08-16T06:52:11.325Z,25.20
2018-08-16T06:54:39.016Z,25.19
2018-08-16T06:57:06.710Z,25.13
2018-08-16T06:59:34.444Z,25.19
2018-08-16T07:02:02.247Z,24.96
2018-08-16T07:04:29.937Z,25.13
2018-08-16T07:06:57.701Z,25.05
2018-08-16T07:09:25.439Z,25.22
2018-08-16T07:11:53.148Z,25.18
2018-08-16T07:14:20.780Z,25.32
2018-08-16T07:16:48.424Z,25.46
2018-08-16T07:19:16.041Z,25.52
2018-08-16T07:21:43.673Z,25.58
2018-08-16T07:24:11.313Z,25.64
2018-08-16T07:26:39.221Z,25.66
2018-08-16T07:29:06.858Z,25.68
2018-08-16T07:31:34.495Z,25.70
2018-08-16T07:34:02.143Z,25.72
2018-08-16T07:36:29.794Z,25.74
2018-08-16T07:38:57.423Z,25.77
2018-08-16T07:41:25.047Z,25.78
2018-08-16T07:43:52.699Z,25.78
2018-08-16T07:46:20.424Z,25.78
2018-08-16T07:48:47.981Z,25.80
2018-08-16T07:51:15.746Z,25.82
2018-08-16T07:53:43.382Z,25.83
2018-08-16T07:56:11.024Z,25.84
2018-08-16T07:58:38.665Z,25.85
2018-08-16T08:01:06.358Z,25.87
2018-08-16T08:03:34.001Z,25.87
2018-08-16T08:06:01.689Z,25.87
2018-08-16T08:08:29.373Z,25.89
2018-08-16T08:10:56.997Z,25.90
2018-08-16T08:13:24.777Z,25.90
2018-08-16T08:15:52.435Z,25.92
2018-08-16T08:18:20.087Z,25.93
2018-08-16T08:20:47.713Z,25.94
2018-08-16T08:23:15.356Z,25.96
2018-08-16T08:25:43.007Z,25.97
2018-08-16T08:28:10.636Z,25.98
2018-08-16T08:30:38.285Z,26.00
2018-08-16T08:33:05.937Z,26.01
2018-08-16T08:35:33.573Z,26.02
2018-08-16T08:38:03.139Z,26.03
2018-08-16T08:40:30.772Z,26.03
2018-08-16T08:42:58.405Z,26.05
2018-08-16T08:45:26.051Z,26.05
2018-08-16T08:47:55.693Z,26.06
2018-08-16T08:50:23.453Z,26.08
2018-08-16T08:52:51.091Z,26.09
2018-08-16T08:55:24.285Z,26.10
2018-08-16T08:57:57.410Z,26.11
2018-08-16T09:00:25.114Z,26.13
2018-08-16T09:02:52.761Z,26.13
2018-08-16T09:05:20.425Z,26.14
2018-08-16T09:07:48.068Z,26.15
2018-08-16T09:10:46.417Z,26.17
2018-08-16T09:13:19.533Z,26.17
2018-08-16T09:15:48.876Z,26.18
2018-08-16T09:18:16.508Z,26.19
2018-08-16T09:20:44.278Z,26.21
2018-08-16T09:23:11.974Z,26.21
2018-08-16T09:25:39.618Z,26.22
2018-08-16T09:28:07.495Z,26.23
2018-08-16T09:30:41.789Z,26.24
2018-08-16T09:33:15.115Z,26.25
2018-08-16T09:35:42.785Z,26.26
2018-08-16T09:38:10.429Z,26.27
2018-08-16T09:40:38.183Z,26.28
2018-08-16T09:43:05.834Z,26.29
2018-08-16T09:45:39.013Z,26.29
2018-08-16T09:48:12.186Z,26.31
2018-08-16T09:50:40.157Z,26.32
2018-08-16T09:53:07.864Z,26.33
2018-08-16T09:55:35.490Z,26.33
2018-08-16T09:58:03.121Z,26.34
2018-08-16T10:00:36.041Z,26.35
2018-08-16T10:03:03.711Z,26.37
2018-08-16T10:05:31.374Z,26.38
2018-08-16T10:07:59.043Z,26.40
2018-08-16T10:10:26.674Z,26.40
2018-08-16T10:12:54.319Z,26.41
2018-08-16T10:15:21.963Z,26.43
2018-08-16T10:17:49.689Z,26.43
2018-08-16T10:20:17.368Z,26.45
2018-08-16T10:22:45.003Z,26.45
2018-08-16T10:25:12.658Z,26.46
2018-08-16T10:27:40.329Z,26.47
2018-08-16T10:30:08.526Z,26.49
2018-08-16T10:32:36.197Z,26.51
2018-08-16T10:35:04.066Z,26.51
2018-08-16T10:37:31.698Z,26.52
2018-08-16T10:39:59.355Z,26.53
2018-08-16T10:42:27.009Z,26.54
2018-08-16T10:44:54.649Z,26.56
2018-08-16T10:47:22.271Z,26.57
2018-08-16T10:49:49.942Z,26.57
2018-08-16T10:52:17.569Z,26.59
2018-08-16T10:54:45.219Z,26.60
2018-08-16T10:57:12.859Z,26.61
2018-08-16T10:59:40.507Z,26.62
2018-08-16T11:02:08.138Z,26.63
2018-08-16T11:04:35.815Z,26.64
2018-08-16T11:07:03.730Z,26.65
2018-08-16T11:09:31.361Z,26.66
2018-08-16T11:11:58.997Z,26.67
2018-08-16T11:14:26.654Z,26.68
2018-08-16T11:16:54.310Z,26.69
2018-08-16T11:19:21.992Z,26.70
2018-08-16T11:21:49.625Z,26.71
2018-08-16T11:24:17.445Z,26.73
2018-08-16T11:26:45.244Z,26.74
2018-08-16T11:29:13.187Z,26.74
2018-08-16T11:31:40.994Z,26.76
2018-08-16T11:34:08.832Z,26.78
2018-08-16T11:36:36.773Z,26.79
2018-08-16T11:39:06.592Z,26.79
2018-08-16T11:41:34.571Z,26.79
2018-08-16T11:44:02.327Z,26.81
2018-08-16T11:46:30.167Z,26.81
2018-08-16T11:48:57.904Z,26.82
2018-08-16T11:51:25.825Z,26.84
2018-08-16T11:53:53.643Z,26.85
2018-08-16T11:56:21.489Z,26.85
2018-08-16T11:58:49.186Z,26.86
2018-08-16T12:01:16.757Z,26.88
2018-08-16T12:03:44.395Z,26.89
2018-08-16T12:06:12.099Z,26.90
2018-08-16T12:08:39.719Z,26.90
2018-08-16T12:11:07.494Z,26.92
2018-08-16T12:13:35.176Z,26.93
2018-08-16T12:16:02.870Z,26.93
2018-08-16T12:18:30.584Z,26.95
2018-08-16T12:20:58.231Z,26.96
2018-08-16T12:23:25.832Z,26.96
2018-08-16T12:25:53.477Z,26.98
2018-08-16T12:28:21.138Z,27.00
2018-08-16T12:30:48.803Z,27.00
2018-08-16T12:33:16.457Z,27.01
2018-08-16T12:35:44.090Z,27.02
2018-08-16T12:38:11.754Z,27.03
2018-08-16T12:40:39.450Z,27.04
2018-08-16T12:43:07.045Z,27.06
2018-08-16T12:45:34.722Z,27.06
2018-08-16T12:48:02.360Z,27.02
2018-08-16T12:50:30.000Z,27.08
2018-08-16T12:52:57.618Z,27.10
2018-08-16T12:55:25.246Z,27.10
2018-08-16T12:57:52.885Z,27.11
2018-08-16T13:00:20.543Z,27.12
2018-08-16T13:02:49.121Z,27.13
2018-08-16T13:05:16.785Z,27.13
2018-08-16T13:07:44.509Z,27.14
2018-08-16T13:10:12.879Z,27.16
2018-08-16T13:12:40.554Z,27.15
2018-08-16T13:15:08.518Z,27.16
2018-08-16T13:17:36.386Z,27.17
2018-08-16T13:20:04.410Z,27.18
2018-08-16T13:22:32.045Z,27.17
2018-08-16T13:24:59.689Z,27.19
2018-08-16T13:27:27.381Z,27.20
2018-08-16T13:29:54.989Z,27.21
2018-08-16T13:32:22.625Z,27.21
2018-08-16T13:34:50.434Z,27.22
2018-08-16T13:37:18.064Z,27.24
2018-08-16T13:39:45.699Z,27.24
2018-08-16T13:42:13.411Z,27.25
2018-08-16T13:44:41.014Z,27.25
2018-08-16T13:47:08.654Z,27.27
2018-08-16T13:49:36.313Z,27.27
2018-08-16T13:52:04.181Z,27.28
2018-08-16T13:54:31.813Z,27.28
2018-08-16T13:56:59.451Z,27.29
2018-08-16T13:59:27.089Z,27.30
2018-08-16T14:01:54.730Z,27.31
2018-08-16T14:04:22.361Z,27.31
2018-08-16T14:06:50.021Z,27.32
2018-08-16T14:09:17.690Z,27.32
2018-08-16T14:11:45.344Z,27.32
2018-08-16T14:14:13.015Z,27.32
2018-08-16T14:16:40.644Z,27.33
2018-08-16T14:19:08.287Z,27.33
2018-08-16T14:21:35.914Z,27.35
2018-08-16T14:24:03.620Z,27.36
2018-08-16T14:26:31.252Z,27.36
2018-08-16T14:28:58.905Z,27.35
2018-08-16T14:31:26.547Z,27.37
2018-08-16T14:33:54.228Z,27.38
2018-08-16T14:36:21.866Z,27.37
2018-08-16T14:38:49.596Z,27.37
2018-08-16T14:41:17.187Z,27.38
2018-08-16T14:43:44.844Z,27.39
2018-08-16T14:46:12.518Z,27.39
2018-08-16T14:48:40.166Z,27.39
2018-08-16T14:51:07.814Z,27.39
2018-08-16T14:53:35.485Z,27.39
2018-08-16T14:56:03.142Z,27.40
2018-08-16T14:58:30.788Z,27.40
2018-08-16T15:00:58.461Z,27.41
2018-08-16T15:03:26.097Z,27.40
2018-08-16T15:05:53.797Z,27.41
2018-08-16T15:08:21.433Z,27.41
2018-08-16T15:10:49.275Z,27.41
2018-08-16T15:13:16.865Z,27.42
2018-08-16T15:15:44.505Z,27.42
2018-08-16T15:18:12.155Z,27.41
2018-08-16T15:20:39.810Z,27.41
2018-08-16T15:23:07.502Z,27.41
2018-08-16T15:25:35.132Z,27.41
2018-08-16T15:28:02.791Z,27.42
2018-08-16T15:30:30.413Z,27.42
2018-08-16T15:32:58.079Z,27.42
2018-08-16T15:35:25.713Z,27.43
2018-08-16T15:37:53.336Z,27.42
2018-08-16T15:40:20.998Z,27.42
2018-08-16T15:42:48.662Z,27.42
2018-08-16T15:45:16.284Z,27.42
2018-08-16T15:47:43.909Z,27.41
2018-08-16T15:50:11.558Z,27.42
2018-08-16T15:52:39.212Z,27.42
2018-08-16T15:55:06.841Z,27.42
2018-08-16T15:57:34.502Z,27.42
2018-08-16T16:00:03.070Z,27.42
2018-08-16T16:02:30.774Z,27.41
2018-08-16T16:04:58.406Z,27.41
2018-08-16T16:07:26.032Z,27.42
2018-08-16T16:09:53.685Z,27.42
2018-08-16T16:12:21.321Z,27.42
2018-08-16T16:14:48.985Z,27.42
2018-08-16T16:17:16.851Z,27.40
2018-08-16T16:19:44.505Z,27.40
2018-08-16T16:22:12.120Z,27.40
2018-08-16T16:24:39.742Z,27.40
2018-08-16T16:27:07.402Z,27.40
2018-08-16T16:29:35.063Z,27.40
2018-08-16T16:32:02.738Z,27.41
2018-08-16T16:34:30.374Z,27.40
2018-08-16T16:36:57.996Z,27.40
2018-08-16T16:39:25.619Z,27.40
2018-08-16T16:41:53.277Z,27.40
2018-08-16T16:44:21.317Z,27.40
2018-08-16T16:46:48.970Z,27.40
2018-08-16T16:49:20.800Z,27.39
2018-08-16T16:51:48.531Z,27.38
2018-08-16T16:54:16.184Z,27.39
2018-08-16T16:56:43.810Z,27.38
2018-08-16T16:59:11.438Z,27.39
2018-08-16T17:01:39.273Z,27.38
2018-08-16T17:04:06.950Z,27.38
2018-08-16T17:06:34.591Z,27.38
2018-08-16T17:09:02.255Z,27.38
2018-08-16T17:11:29.886Z,27.37
2018-08-16T17:13:57.529Z,27.37
2018-08-16T17:16:25.166Z,27.37
2018-08-16T17:18:52.829Z,27.36
2018-08-16T17:21:20.501Z,27.35
2018-08-16T17:23:48.153Z,27.34
2018-08-16T17:26:15.880Z,27.35
2018-08-16T17:28:43.689Z,27.34
2018-08-16T17:31:11.323Z,27.34
2018-08-16T17:33:38.986Z,27.34
2018-08-16T17:36:06.629Z,27.33
2018-08-16T17:38:34.254Z,27.33
2018-08-16T17:41:01.928Z,27.32
2018-08-16T17:43:29.536Z,27.32
2018-08-16T17:45:57.183Z,27.32
2018-08-16T17:48:24.830Z,27.31
2018-08-16T17:50:52.436Z,27.32
2018-08-16T17:53:20.084Z,27.30
2018-08-16T17:55:47.720Z,27.30
2018-08-16T17:58:15.344Z,27.30
2018-08-16T18:00:43.021Z,27.30
2018-08-16T18:03:10.653Z,27.29
2018-08-16T18:05:38.298Z,27.28
2018-08-16T18:08:06.076Z,27.28
2018-08-16T18:10:33.746Z,27.28
2018-08-16T18:13:01.930Z,27.28
2018-08-16T18:15:29.558Z,27.26
2018-08-16T18:17:57.216Z,27.26
2018-08-16T18:20:24.858Z,27.26
2018-08-16T18:22:52.540Z,27.26
2018-08-16T18:25:20.209Z,27.25
2018-08-16T18:27:47.890Z,27.25
2018-08-16T18:30:15.569Z,27.24
2018-08-16T18:32:43.811Z,27.23
2018-08-16T18:35:11.574Z,27.25
2018-08-16T18:37:39.365Z,27.23
2018-08-16T18:40:07.610Z,27.23
2018-08-16T18:42:35.468Z,27.22
2018-08-16T18:45:03.347Z,27.22
2018-08-16T18:47:31.084Z,27.21
2018-08-16T18:49:58.823Z,27.21
2018-08-16T18:52:26.703Z,27.21
2018-08-16T18:54:54.409Z,27.20
2018-08-16T18:57:22.105Z,27.19
2018-08-16T18:59:49.963Z,27.18
2018-08-16T19:02:17.745Z,27.19
2018-08-16T19:04:45.502Z,27.18
2018-08-16T19:07:13.234Z,27.17
2018-08-16T19:09:41.088Z,27.18
2018-08-16T19:12:08.913Z,27.15
2018-08-16T19:14:36.603Z,27.16
2018-08-16T19:17:04.515Z,27.15
2018-08-16T19:19:32.300Z,27.15
2018-08-16T19:22:00.054Z,27.14
2018-08-16T19:24:27.798Z,27.14
2018-08-16T19:26:55.514Z,27.14
2018-08-16T19:29:23.332Z,27.14
2018-08-16T19:31:51.096Z,27.13
2018-08-16T19:34:18.827Z,27.13
2018-08-16T19:36:46.505Z,27.13
2018-08-16T19:39:14.271Z,27.12
2018-08-16T19:41:42.017Z,27.11
2018-08-16T19:44:09.790Z,27.10
2018-08-16T19:46:37.539Z,27.11
2018-08-16T19:49:05.748Z,27.10
2018-08-16T19:51:33.496Z,27.09
2018-08-16T19:54:01.226Z,27.09
2018-08-16T19:56:29.022Z,27.08
2018-08-16T19:58:56.726Z,27.08
2018-08-16T20:01:24.491Z,27.07
2018-08-16T20:03:52.193Z,27.08
2018-08-16T20:06:19.856Z,27.07
2018-08-16T20:08:47.569Z,27.06
2018-08-16T20:11:15.307Z,27.06
2018-08-16T20:13:43.049Z,26.86
2018-08-16T20:16:10.774Z,27.05
2018-08-16T20:18:38.955Z,27.04
2018-08-16T20:21:06.827Z,27.04
2018-08-16T20:23:34.472Z,27.03
2018-08-16T20:26:02.203Z,27.02
2018-08-16T20:28:30.002Z,27.01
2018-08-16T20:30:57.780Z,27.02
2018-08-16T20:33:25.528Z,27.01
2018-08-16T20:35:53.302Z,27.00
2018-08-16T20:38:20.963Z,27.01
2018-08-16T20:40:48.656Z,27.00
2018-08-16T20:43:16.434Z,26.99
2018-08-16T20:45:44.210Z,26.99
2018-08-16T20:48:11.880Z,26.98
2018-08-16T20:50:39.649Z,26.98
2018-08-16T20:53:07.428Z,26.98
2018-08-16T20:55:35.204Z,26.97
2018-08-16T20:58:02.944Z,26.96
2018-08-16T21:00:30.753Z,26.95
2018-08-16T21:02:58.524Z,26.95
2018-08-16T21:05:26.260Z,26.95
2018-08-16T21:07:54.012Z,26.94
2018-08-16T21:10:21.722Z,26.93
2018-08-16T21:12:49.482Z,26.93
2018-08-16T21:15:17.249Z,26.93
2018-08-16T21:17:45.451Z,26.92
2018-08-16T21:20:13.181Z,26.92
2018-08-16T21:22:40.828Z,26.93
2018-08-16T21:25:08.525Z,26.90
2018-08-16T21:27:36.418Z,26.90
2018-08-16T21:30:04.665Z,26.89
2018-08-16T21:32:32.345Z,26.89
2018-08-16T21:35:00.118Z,26.89
2018-08-16T21:37:35.043Z,26.89
2018-08-16T21:40:04.504Z,26.88
2018-08-16T21:42:35.243Z,26.87
2018-08-16T21:45:05.216Z,26.87
2018-08-16T21:47:33.253Z,26.87
2018-08-16T21:50:02.807Z,26.85
2018-08-16T21:52:33.037Z,26.85
2018-08-16T21:55:08.478Z,26.84
2018-08-16T21:57:40.453Z,26.85
2018-08-16T22:00:12.341Z,26.84
2018-08-16T22:02:43.165Z,26.84
2018-08-16T22:05:11.756Z,26.84
2018-08-16T22:08:16.345Z,26.84
2018-08-16T22:10:47.246Z,26.83
2018-08-16T22:13:16.788Z,26.82
2018-08-16T22:15:47.626Z,26.82
2018-08-16T22:18:15.887Z,26.82
2018-08-16T22:20:44.040Z,26.81
2018-08-16T22:23:17.824Z,26.81
2018-08-16T22:25:49.003Z,26.80
2018-08-16T22:28:17.736Z,26.80
2018-08-16T22:30:46.080Z,26.80
2018-08-16T22:33:14.414Z,26.80
2018-08-16T22:35:44.940Z,26.78
2018-08-16T22:38:14.276Z,26.77
2018-08-16T22:40:48.127Z,26.78
2018-08-16T22:43:16.291Z,26.77
2018-08-16T22:45:47.114Z,26.76
2018-08-16T22:48:15.126Z,26.75
2018-08-16T22:50:44.520Z,26.75
2018-08-16T22:53:15.300Z,26.75
2018-08-16T22:55:47.031Z,26.74
2018-08-16T22:58:15.497Z,26.73
2018-08-16T23:00:53.076Z,26.74
2018-08-16T23:03:21.029Z,26.73
2018-08-16T23:05:50.727Z,26.72
2018-08-16T23:08:19.097Z,26.72
2018-08-16T23:10:49.732Z,26.71
2018-08-16T23:13:19.256Z,26.70
2018-08-16T23:15:48.569Z,26.69
2018-08-16T23:18:32.242Z,26.70
2018-08-16T23:21:01.564Z,26.69
2018-08-16T23:23:29.542Z,26.68
2018-08-16T23:26:03.471Z,26.68
2018-08-16T23:28:31.495Z,26.68
2018-08-16T23:31:05.693Z,26.67
2018-08-16T23:33:33.790Z,26.67
2018-08-16T23:36:06.205Z,26.66
2018-08-16T23:38:34.068Z,26.66
2018-08-16T23:41:06.387Z,26.65
2018-08-16T23:43:34.549Z,26.65
2018-08-16T23:46:10.534Z,26.64
2018-08-16T23:48:41.117Z,26.65
2018-08-16T23:51:09.463Z,26.64
2018-08-16T23:53:44.957Z,26.63
2018-08-16T23:56:14.605Z,26.62
2018-08-16T23:58:42.424Z,26.61
